createdAt,value
2023-01-11T00:00:15.928Z,68.21
2023-01-11T00:02:17.645Z,68.57
2023-01-11T00:04:19.535Z,68.75
2023-01-11T00:06:21.211Z,68.72
2023-01-11T00:08:24.522Z,69.32
2023-01-11T00:10:26.280Z,69.02
2023-01-11T00:12:28.629Z,67.61
2023-01-11T00:14:30.131Z,66.74
2023-01-11T00:16:31.789Z,66.99
2023-01-11T00:18:33.307Z,66.30
2023-01-11T00:20:34.923Z,66.04
2023-01-11T00:22:36.773Z,66.24
2023-01-11T00:24:38.268Z,66.35
2023-01-11T00:26:39.884Z,66.22
2023-01-11T00:28:41.987Z,65.62
2023-01-11T00:30:43.449Z,66.36
2023-01-11T00:32:45.010Z,68.83
2023-01-11T00:34:46.607Z,70.75
2023-01-11T00:36:48.124Z,71.92
2023-01-11T00:38:54.383Z,72.11
2023-01-11T00:40:55.879Z,72.12
2023-01-11T00:43:16.158Z,72.38
2023-01-11T00:45:36.066Z,73.22
2023-01-11T00:47:56.156Z,73.93
2023-01-11T00:49:57.848Z,74.03
2023-01-11T00:51:59.587Z,73.80
2023-01-11T00:54:01.060Z,73.30
2023-01-11T00:56:02.532Z,72.90
2023-01-11T00:58:04.195Z,72.61
2023-01-11T01:00:06.438Z,72.55
2023-01-11T01:02:08.974Z,71.98
2023-01-11T01:04:10.683Z,72.70
2023-01-11T01:06:12.373Z,72.08
2023-01-11T01:08:13.918Z,72.21
2023-01-11T01:10:15.909Z,72.88
2023-01-11T01:12:36.253Z,72.15
2023-01-11T01:14:37.780Z,72.06
2023-01-11T01:16:39.247Z,72.62
2023-01-11T01:18:40.859Z,72.32
2023-01-11T01:20:42.452Z,72.63
2023-01-11T01:22:43.949Z,72.64
2023-01-11T01:24:45.484Z,72.76
2023-01-11T01:26:47.131Z,72.99
2023-01-11T01:28:48.874Z,72.84
2023-01-11T01:30:51.584Z,72.75
2023-01-11T01:32:54.437Z,73.36
2023-01-11T01:34:55.950Z,72.39
2023-01-11T01:36:57.541Z,73.14
2023-01-11T01:38:59.966Z,73.20
2023-01-11T01:41:01.502Z,72.63
2023-01-11T01:43:03.129Z,72.74
2023-01-11T01:45:06.909Z,73.20
2023-01-11T01:47:08.538Z,72.60
2023-01-11T01:49:11.893Z,73.16
2023-01-11T01:51:15.088Z,72.32
2023-01-11T01:53:26.595Z,73.35
2023-01-11T01:55:29.236Z,72.76
2023-01-11T01:57:31.455Z,73.21
2023-01-11T01:59:32.996Z,72.92
2023-01-11T02:01:50.076Z,73.13
2023-01-11T02:03:51.917Z,73.05
2023-01-11T02:05:53.416Z,72.99
2023-01-11T02:07:56.383Z,72.37
2023-01-11T02:10:08.092Z,72.37
2023-01-11T02:12:09.679Z,72.73
2023-01-11T02:14:12.745Z,72.77
2023-01-11T02:16:14.266Z,72.28
2023-01-11T02:18:15.793Z,73.06
2023-01-11T02:20:17.434Z,73.25
2023-01-11T02:22:37.220Z,72.66
2023-01-11T02:24:38.680Z,73.14
2023-01-11T02:26:46.002Z,72.94
2023-01-11T02:29:00.700Z,72.94
2023-01-11T02:31:14.701Z,73.06
2023-01-11T02:33:18.840Z,72.77
2023-01-11T02:35:26.576Z,72.50
2023-01-11T02:37:46.377Z,72.55
2023-01-11T02:39:47.927Z,71.95
2023-01-11T02:42:23.376Z,72.85
2023-01-11T02:44:47.790Z,72.59
2023-01-11T02:46:56.674Z,72.42
2023-01-11T02:49:16.981Z,73.69
2023-01-11T02:51:27.191Z,73.53
2023-01-11T02:53:31.364Z,73.52
2023-01-11T02:55:34.945Z,73.46
2023-01-11T02:57:39.291Z,73.96
2023-01-11T02:59:41.895Z,73.55
2023-01-11T03:01:44.648Z,73.43
2023-01-11T03:03:46.241Z,73.98
2023-01-11T03:05:50.521Z,73.98
2023-01-11T03:08:00.142Z,73.54
2023-01-11T03:10:17.972Z,73.96
2023-01-11T03:12:51.981Z,73.56
2023-01-11T03:14:59.710Z,73.31
2023-01-11T03:17:06.170Z,73.68
2023-01-11T03:19:25.364Z,73.67
2023-01-11T03:21:29.984Z,73.71
2023-01-11T03:23:43.236Z,73.52
2023-01-11T03:26:04.398Z,72.80
2023-01-11T03:28:09.411Z,73.32
2023-01-11T03:30:13.658Z,73.28
2023-01-11T03:32:26.276Z,73.22
2023-01-11T03:34:37.174Z,72.49
2023-01-11T03:36:40.557Z,71.84
2023-01-11T03:38:49.601Z,72.59
2023-01-11T03:40:53.273Z,72.42
2023-01-11T03:43:12.518Z,72.47
2023-01-11T03:45:14.090Z,72.02
2023-01-11T03:47:15.965Z,71.95
2023-01-11T03:49:21.838Z,71.76
2023-01-11T03:51:45.055Z,71.92
2023-01-11T03:53:47.081Z,71.84
2023-01-11T03:55:50.060Z,72.06
2023-01-11T03:57:52.649Z,71.74
2023-01-11T03:59:54.149Z,72.18
2023-01-11T04:01:55.785Z,71.70
2023-01-11T04:03:57.475Z,72.10
2023-01-11T04:06:00.059Z,71.63
2023-01-11T04:08:01.560Z,71.40
2023-01-11T04:10:03.465Z,71.61
2023-01-11T04:12:05.147Z,71.64
2023-01-11T04:14:06.789Z,71.37
2023-01-11T04:16:08.390Z,72.01
2023-01-11T04:18:09.976Z,71.83
2023-01-11T04:20:12.217Z,72.02
2023-01-11T04:22:13.816Z,71.82
2023-01-11T04:24:15.451Z,72.32
2023-01-11T04:26:17.659Z,72.27
2023-01-11T04:28:19.167Z,72.53
2023-01-11T04:30:21.052Z,72.21
2023-01-11T04:32:22.729Z,72.75
2023-01-11T04:34:24.250Z,71.97
2023-01-11T04:36:26.702Z,72.32
2023-01-11T04:38:28.246Z,72.25
2023-01-11T04:40:29.826Z,72.01
2023-01-11T04:42:31.337Z,71.77
2023-01-11T04:44:32.842Z,71.44
2023-01-11T04:46:34.674Z,71.61
2023-01-11T04:48:36.235Z,71.56
2023-01-11T04:50:37.767Z,71.28
2023-01-11T04:52:41.793Z,71.18
2023-01-11T04:54:43.475Z,70.56
2023-01-11T04:56:45.011Z,71.01
2023-01-11T04:58:46.892Z,71.22
2023-01-11T05:00:48.388Z,70.51
2023-01-11T05:02:49.984Z,70.71
2023-01-11T05:04:51.470Z,70.75
2023-01-11T05:06:53.064Z,70.59
2023-01-11T05:08:54.660Z,70.52
2023-01-11T05:10:57.135Z,70.50
2023-01-11T05:12:58.659Z,70.87
2023-01-11T05:15:00.237Z,70.69
2023-01-11T05:17:01.762Z,70.49
2023-01-11T05:19:03.912Z,70.36
2023-01-11T05:21:06.512Z,70.46
2023-01-11T05:23:08.059Z,70.54
2023-01-11T05:25:09.685Z,70.35
2023-01-11T05:27:11.239Z,70.64
2023-01-11T05:29:14.238Z,70.15
2023-01-11T05:31:16.182Z,70.91
2023-01-11T05:33:17.723Z,70.74
2023-01-11T05:35:19.616Z,71.56
2023-01-11T05:37:21.194Z,70.97
2023-01-11T05:39:23.958Z,71.26
2023-01-11T05:41:26.327Z,71.49
2023-01-11T05:43:28.633Z,71.85
2023-01-11T05:45:31.991Z,71.91
2023-01-11T05:47:33.606Z,71.81
2023-01-11T05:49:35.149Z,71.13
2023-01-11T05:51:38.187Z,70.89
2023-01-11T05:53:39.789Z,71.30
2023-01-11T05:55:51.423Z,70.90
2023-01-11T05:57:52.926Z,71.35
2023-01-11T05:59:54.438Z,71.05
2023-01-11T06:01:56.101Z,70.41
2023-01-11T06:03:57.630Z,70.02
2023-01-11T06:05:59.758Z,70.37
2023-01-11T06:08:01.628Z,69.93
2023-01-11T06:10:03.386Z,70.06
2023-01-11T06:12:04.967Z,69.79
2023-01-11T06:14:06.472Z,70.53
2023-01-11T06:16:10.020Z,69.78
2023-01-11T06:18:11.812Z,69.71
2023-01-11T06:20:13.390Z,70.03
2023-01-11T06:22:14.914Z,70.13
2023-01-11T06:24:16.433Z,69.51
2023-01-11T06:26:19.531Z,69.05
2023-01-11T06:28:21.154Z,69.03
2023-01-11T06:30:25.821Z,69.11
2023-01-11T06:32:29.047Z,68.73
2023-01-11T06:34:30.660Z,69.34
2023-01-11T06:36:32.200Z,68.27
2023-01-11T06:38:33.904Z,68.50
2023-01-11T06:40:35.765Z,68.74
2023-01-11T06:42:37.356Z,68.49
2023-01-11T06:44:38.916Z,68.34
2023-01-11T06:46:40.599Z,67.64
2023-01-11T06:48:42.579Z,67.93
2023-01-11T06:50:47.248Z,67.70
2023-01-11T06:52:58.956Z,67.74
2023-01-11T06:55:00.519Z,68.02
2023-01-11T06:57:02.086Z,67.61
2023-01-11T06:59:04.556Z,67.90
2023-01-11T07:01:06.319Z,67.91
2023-01-11T07:03:08.050Z,67.98
2023-01-11T07:05:10.155Z,67.81
2023-01-11T07:07:11.679Z,67.89
2023-01-11T07:09:13.111Z,67.65
2023-01-11T07:11:14.772Z,67.67
2023-01-11T07:13:17.401Z,67.27
2023-01-11T07:15:19.247Z,66.72
2023-01-11T07:17:21.006Z,67.19
2023-01-11T07:19:22.566Z,67.03
2023-01-11T07:21:24.058Z,66.92
2023-01-11T07:23:25.573Z,66.75
2023-01-11T07:25:27.872Z,67.20
2023-01-11T07:27:29.485Z,67.69
2023-01-11T07:29:31.041Z,68.89
2023-01-11T07:31:32.722Z,68.91
2023-01-11T07:33:35.321Z,67.91
2023-01-11T07:35:36.966Z,68.69
2023-01-11T07:37:38.536Z,69.06
2023-01-11T07:39:43.932Z,69.60
2023-01-11T07:42:04.091Z,69.28
2023-01-11T07:44:05.675Z,68.23
2023-01-11T07:46:07.385Z,67.51
2023-01-11T07:48:10.656Z,67.71
2023-01-11T07:50:12.193Z,67.07
2023-01-11T07:52:13.908Z,66.32
2023-01-11T07:54:15.353Z,66.12
2023-01-11T07:56:17.097Z,65.88
2023-01-11T07:58:18.665Z,65.99
2023-01-11T08:00:20.421Z,64.96
2023-01-11T08:02:21.953Z,65.68
2023-01-11T08:04:23.535Z,65.28
2023-01-11T08:06:25.258Z,68.24
2023-01-11T08:08:26.790Z,69.74
2023-01-11T08:10:28.317Z,69.89
2023-01-11T08:12:51.366Z,68.07
2023-01-11T08:14:53.117Z,68.08
2023-01-11T08:16:54.659Z,67.89
2023-01-11T08:18:56.112Z,67.01
2023-01-11T08:20:57.578Z,67.55
2023-01-11T08:23:02.224Z,67.02
2023-01-11T08:25:03.800Z,67.28
2023-01-11T08:27:05.302Z,67.40
2023-01-11T08:29:06.917Z,67.52
2023-01-11T08:31:08.979Z,67.15
2023-01-11T08:33:10.470Z,67.09
2023-01-11T08:35:12.342Z,66.71
2023-01-11T08:37:14.603Z,66.80
2023-01-11T08:39:16.166Z,66.71
2023-01-11T08:41:17.649Z,66.52
2023-01-11T08:43:19.305Z,65.75
2023-01-11T08:45:20.795Z,66.46
2023-01-11T08:47:23.179Z,67.10
2023-01-11T08:49:25.052Z,67.60
2023-01-11T08:51:26.586Z,66.89
2023-01-11T08:53:28.299Z,65.77
2023-01-11T08:55:30.968Z,65.74
2023-01-11T08:57:32.489Z,65.81
2023-01-11T08:59:34.017Z,65.83
2023-01-11T09:01:35.586Z,65.10
2023-01-11T09:03:37.229Z,64.97
2023-01-11T09:05:39.474Z,64.76
2023-01-11T09:07:41.151Z,64.14
2023-01-11T09:09:42.646Z,63.98
2023-01-11T09:12:00.955Z,64.38
2023-01-11T09:14:02.469Z,64.35
2023-01-11T09:16:04.049Z,64.54
2023-01-11T09:18:05.714Z,64.31
2023-01-11T09:20:07.556Z,64.04
2023-01-11T09:22:09.071Z,64.20
2023-01-11T09:24:10.614Z,63.83
2023-01-11T09:26:12.633Z,63.43
2023-01-11T09:28:14.179Z,63.45
2023-01-11T09:30:18.831Z,63.21
2023-01-11T09:32:20.384Z,63.16
2023-01-11T09:34:21.973Z,63.00
2023-01-11T09:36:26.630Z,63.23
2023-01-11T09:38:30.823Z,63.77
2023-01-11T09:40:35.410Z,62.99
2023-01-11T09:42:39.759Z,63.42
2023-01-11T09:45:02.766Z,63.30
2023-01-11T09:47:25.550Z,63.69
2023-01-11T09:49:28.441Z,65.17
2023-01-11T09:51:33.565Z,65.24
2023-01-11T09:53:37.220Z,66.54
2023-01-11T09:55:46.981Z,66.05
2023-01-11T09:57:52.107Z,64.90
2023-01-11T10:00:12.256Z,64.14
2023-01-11T10:05:10.975Z,65.20
2023-01-11T10:07:23.214Z,65.29
2023-01-11T10:18:28.387Z,67.63
2023-01-11T10:18:33.481Z,66.90
2023-01-11T10:19:39.494Z,66.94
2023-01-11T10:21:46.704Z,66.61
2023-01-11T10:24:14.858Z,65.67
2023-01-11T10:26:24.313Z,64.12
2023-01-11T10:28:36.271Z,66.19
2023-01-11T10:30:51.561Z,66.32
2023-01-11T10:33:14.887Z,65.67
2023-01-11T10:35:37.922Z,66.11
2023-01-11T10:38:11.431Z,66.05
2023-01-11T10:40:31.344Z,66.76
2023-01-11T10:42:34.029Z,66.65
2023-01-11T10:44:48.878Z,65.98
2023-01-11T10:46:51.293Z,65.23
2023-01-11T10:49:28.683Z,64.74
2023-01-11T10:51:31.799Z,64.04
2023-01-11T10:53:39.131Z,62.49
2023-01-11T10:55:49.382Z,62.12
2023-01-11T10:58:03.392Z,62.30
2023-01-11T11:00:14.364Z,63.59
2023-01-11T11:02:21.155Z,63.45
2023-01-11T11:04:38.640Z,64.81
2023-01-11T11:06:40.129Z,65.05
2023-01-11T11:08:59.682Z,65.01
2023-01-11T11:11:14.115Z,65.24
2023-01-11T11:13:18.795Z,66.24
2023-01-11T11:15:21.825Z,65.98
2023-01-11T11:17:28.241Z,64.58
2023-01-11T11:19:32.471Z,64.04
2023-01-11T11:21:34.806Z,63.48
2023-01-11T11:23:36.585Z,63.15
2023-01-11T11:25:38.716Z,63.82
2023-01-11T11:27:41.372Z,63.94
2023-01-11T11:29:43.958Z,62.56
2023-01-11T11:31:47.167Z,63.40
2023-01-11T11:33:48.779Z,60.46
2023-01-11T11:36:01.359Z,59.67
2023-01-11T11:38:02.955Z,59.72
2023-01-11T11:40:04.729Z,59.65
2023-01-11T11:42:07.390Z,60.30
2023-01-11T11:44:14.377Z,59.64
2023-01-11T11:46:19.391Z,60.58
2023-01-11T11:48:21.814Z,60.73
2023-01-11T11:50:43.261Z,60.84
2023-01-11T11:52:47.820Z,60.44
2023-01-11T11:54:50.214Z,60.66
2023-01-11T11:56:51.804Z,60.85
2023-01-11T11:58:53.409Z,60.76
2023-01-11T12:00:55.148Z,61.67
2023-01-11T12:02:58.044Z,62.20
2023-01-11T12:05:00.197Z,62.35
2023-01-11T12:07:09.260Z,62.42
2023-01-11T12:09:25.221Z,61.97
2023-01-11T12:11:30.165Z,61.48
2023-01-11T12:13:32.988Z,61.54
2023-01-11T12:15:34.702Z,62.03
2023-01-11T12:17:36.429Z,61.49
2023-01-11T12:19:41.765Z,60.98
2023-01-11T12:21:43.259Z,61.25
2023-01-11T12:23:44.946Z,61.68
2023-01-11T12:25:46.423Z,64.15
2023-01-11T12:27:55.332Z,64.94
2023-01-11T12:29:59.859Z,64.84
2023-01-11T12:32:06.265Z,64.55
2023-01-11T12:34:16.973Z,65.38
2023-01-11T12:36:21.577Z,67.16
2023-01-11T12:38:25.820Z,66.86
2023-01-11T12:40:37.853Z,67.20
2023-01-11T12:42:45.606Z,66.55
2023-01-11T12:45:02.089Z,66.22
2023-01-11T12:47:06.812Z,66.07
2023-01-11T12:49:19.386Z,65.47
2023-01-11T12:51:27.744Z,65.16
2023-01-11T12:53:38.656Z,65.79
2023-01-11T12:55:58.337Z,65.97
2023-01-11T12:58:32.197Z,65.88
2023-01-11T13:00:52.226Z,65.14
2023-01-11T13:03:02.933Z,64.33
2023-01-11T13:05:25.068Z,65.03
2023-01-11T13:07:35.181Z,65.34
2023-01-11T13:09:39.577Z,65.74
2023-01-11T13:12:00.234Z,64.86
2023-01-11T13:14:07.884Z,64.34
2023-01-11T13:16:14.393Z,64.37
2023-01-11T13:18:19.187Z,64.24
2023-01-11T13:20:25.920Z,63.93
2023-01-11T13:22:32.382Z,63.70
2023-01-11T13:24:33.937Z,63.65
2023-01-11T13:26:36.310Z,63.73
2023-01-11T13:28:38.883Z,64.04
2023-01-11T13:30:40.747Z,62.96
2023-01-11T13:32:44.332Z,63.20
2023-01-11T13:34:48.325Z,63.19
2023-01-11T13:36:54.685Z,63.48
2023-01-11T13:39:05.036Z,63.57
2023-01-11T13:41:12.159Z,64.31
2023-01-11T13:43:16.412Z,63.83
2023-01-11T13:45:19.147Z,64.14
2023-01-11T13:47:21.416Z,63.53
2023-01-11T13:49:38.627Z,63.97
2023-01-11T13:51:46.876Z,64.54
2023-01-11T13:53:51.460Z,64.48
2023-01-11T13:56:06.511Z,66.01
2023-01-11T13:58:23.597Z,66.21
2023-01-11T14:00:27.447Z,65.40
2023-01-11T14:02:37.974Z,64.82
2023-01-11T14:05:18.389Z,64.77
2023-01-11T14:07:26.139Z,64.20
2023-01-11T14:09:30.298Z,63.84
2023-01-11T14:11:31.910Z,63.48
2023-01-11T14:14:17.545Z,63.92
2023-01-11T14:16:41.155Z,63.39
2023-01-11T14:19:15.560Z,64.00
2023-01-11T14:21:35.779Z,63.68
2023-01-11T14:23:47.984Z,63.36
2023-01-11T14:25:59.059Z,62.48
2023-01-11T14:28:07.126Z,62.50
2023-01-11T14:30:17.540Z,62.96
2023-01-11T14:32:19.031Z,62.45
2023-01-11T14:34:26.387Z,62.67
2023-01-11T14:36:27.869Z,63.17
2023-01-11T14:38:29.614Z,63.63
2023-01-11T14:40:42.948Z,63.81
2023-01-11T14:42:50.335Z,64.37
2023-01-11T14:45:13.513Z,65.58
2023-01-11T14:47:33.887Z,67.83
2023-01-11T14:49:49.267Z,68.35
2023-01-11T14:51:58.884Z,69.33
2023-01-11T14:54:11.191Z,68.37
2023-01-11T14:56:32.530Z,69.13
2023-01-11T14:58:34.049Z,68.33
2023-01-11T15:00:35.566Z,67.06
2023-01-11T15:02:37.242Z,67.03
2023-01-11T15:04:56.904Z,66.72
2023-01-11T15:06:58.461Z,66.22
2023-01-11T15:09:00.517Z,66.14
2023-01-11T15:11:24.844Z,65.52
2023-01-11T15:13:26.638Z,65.82
2023-01-11T15:15:48.401Z,65.96
2023-01-11T15:18:14.732Z,67.48
2023-01-11T15:20:19.964Z,68.97
2023-01-11T15:22:31.209Z,70.11
2023-01-11T15:24:37.338Z,71.48
2023-01-11T15:26:48.692Z,71.38
2023-01-11T15:28:57.240Z,71.49
2023-01-11T15:30:58.885Z,71.12
2023-01-11T15:33:18.891Z,70.62
2023-01-11T15:35:23.895Z,69.93
2023-01-11T15:37:28.751Z,70.20
2023-01-11T15:39:46.453Z,70.82
2023-01-11T15:42:06.922Z,71.47
2023-01-11T15:44:22.719Z,71.77
2023-01-11T15:46:54.790Z,71.82
2023-01-11T15:49:07.656Z,71.88
2023-01-11T15:51:27.852Z,72.42
2023-01-11T15:53:38.429Z,72.53
2023-01-11T15:55:39.919Z,72.88
2023-01-11T15:58:00.026Z,72.08
2023-01-11T16:00:20.158Z,72.41
2023-01-11T16:02:36.823Z,72.53
2023-01-11T16:04:54.166Z,72.77
2023-01-11T16:06:59.402Z,72.49
2023-01-11T16:09:12.786Z,72.68
2023-01-11T16:11:38.537Z,72.55
2023-01-11T16:13:57.844Z,72.66
2023-01-11T16:16:06.955Z,71.83
2023-01-11T16:18:20.923Z,72.25
2023-01-11T16:20:23.841Z,71.74
2023-01-11T16:22:26.568Z,70.36
2023-01-11T16:24:29.764Z,70.20
2023-01-11T16:26:31.440Z,68.84
2023-01-11T16:28:33.026Z,68.74
2023-01-11T16:30:34.538Z,67.73
2023-01-11T16:32:37.676Z,68.00
2023-01-11T16:34:43.298Z,68.52
2023-01-11T16:36:49.059Z,67.98
2023-01-11T16:38:50.599Z,68.53
2023-01-11T16:40:54.334Z,68.32
2023-01-11T16:43:01.617Z,68.18
2023-01-11T16:45:04.267Z,68.34
2023-01-11T16:47:15.841Z,67.83
2023-01-11T16:49:17.946Z,67.89
2023-01-11T16:51:19.530Z,69.50
2023-01-11T16:53:21.022Z,71.09
2023-01-11T16:55:25.701Z,71.78
2023-01-11T16:57:31.424Z,71.05
2023-01-11T16:59:34.859Z,70.96
2023-01-11T17:01:51.877Z,70.68
2023-01-11T17:03:54.592Z,70.93
2023-01-11T17:05:57.494Z,71.67
2023-01-11T17:07:58.926Z,71.38
2023-01-11T17:10:35.889Z,70.95
2023-01-11T17:12:37.410Z,70.73
2023-01-11T17:14:38.891Z,70.92
2023-01-11T17:16:41.262Z,69.87
2023-01-11T17:18:43.320Z,70.46
2023-01-11T17:20:44.775Z,70.75
2023-01-11T17:22:46.489Z,70.38
2023-01-11T17:24:49.761Z,70.88
2023-01-11T17:26:54.380Z,70.65
2023-01-11T17:28:57.600Z,70.63
2023-01-11T17:31:00.294Z,71.50
2023-01-11T17:33:01.868Z,71.92
2023-01-11T17:35:16.951Z,71.57
2023-01-11T17:37:18.442Z,71.27
2023-01-11T17:39:29.204Z,71.23
2023-01-11T17:41:49.664Z,71.60
2023-01-11T17:44:09.946Z,71.71
2023-01-11T17:46:16.911Z,71.42
2023-01-11T17:48:20.496Z,71.70
2023-01-11T17:50:27.220Z,72.28
2023-01-11T17:52:29.441Z,73.17
2023-01-11T17:54:31.030Z,73.60
2023-01-11T17:56:32.742Z,72.65
2023-01-11T17:58:34.925Z,72.76
2023-01-11T18:00:36.491Z,73.09
2023-01-11T18:02:41.356Z,72.69
2023-01-11T18:04:42.916Z,71.80
2023-01-11T18:06:45.223Z,71.88
2023-01-11T18:08:47.663Z,71.15
2023-01-11T18:10:53.189Z,71.19
2023-01-11T18:12:57.969Z,70.50
2023-01-11T18:15:00.382Z,70.57
2023-01-11T18:17:03.042Z,70.37
2023-01-11T18:19:21.938Z,69.85
2023-01-11T18:21:26.801Z,69.47
2023-01-11T18:23:28.320Z,70.21
2023-01-11T18:25:30.778Z,70.25
2023-01-11T18:27:33.198Z,69.88
2023-01-11T18:29:37.711Z,69.86
2023-01-11T18:31:39.233Z,70.07
2023-01-11T18:33:41.800Z,70.22
2023-01-11T18:35:46.719Z,70.41
2023-01-11T18:37:48.602Z,69.84
2023-01-11T18:39:50.784Z,70.02
2023-01-11T18:42:08.515Z,69.87
2023-01-11T18:44:10.734Z,69.81
2023-01-11T18:46:12.277Z,70.72
2023-01-11T18:48:14.351Z,70.12
2023-01-11T18:50:18.062Z,69.71
2023-01-11T18:52:40.332Z,69.94
2023-01-11T18:54:42.040Z,69.80
2023-01-11T18:56:43.697Z,70.18
2023-01-11T18:59:03.840Z,69.68
2023-01-11T19:01:07.026Z,69.74
2023-01-11T19:03:09.586Z,68.98
2023-01-11T19:05:14.049Z,69.13
2023-01-11T19:07:15.774Z,69.21
2023-01-11T19:09:17.255Z,68.37
2023-01-11T19:11:18.959Z,68.56
2023-01-11T19:13:21.146Z,68.67
2023-01-11T19:15:22.704Z,68.51
2023-01-11T19:17:24.340Z,69.13
2023-01-11T19:19:26.023Z,68.38
2023-01-11T19:21:27.518Z,68.78
2023-01-11T19:23:29.203Z,68.60
2023-01-11T19:25:30.977Z,68.88
2023-01-11T19:27:33.458Z,69.14
2023-01-11T19:29:34.949Z,68.79
2023-01-11T19:31:36.634Z,68.97
2023-01-11T19:33:40.216Z,69.28
2023-01-11T19:35:47.655Z,69.43
2023-01-11T19:37:49.667Z,71.07
2023-01-11T19:39:51.150Z,71.33
2023-01-11T19:41:57.997Z,70.87
2023-01-11T19:43:59.593Z,70.43
2023-01-11T19:46:02.330Z,70.16
2023-01-11T19:48:04.626Z,69.95
2023-01-11T19:50:07.366Z,70.13
2023-01-11T19:52:14.026Z,70.37
2023-01-11T19:54:16.241Z,70.63
2023-01-11T19:56:17.734Z,71.03
2023-01-11T19:58:19.194Z,70.27
2023-01-11T20:00:20.744Z,71.05
2023-01-11T20:02:22.698Z,70.89
2023-01-11T20:04:25.866Z,70.17
2023-01-11T20:06:27.462Z,69.98
2023-01-11T20:08:29.096Z,69.80
2023-01-11T20:10:30.539Z,69.91
2023-01-11T20:12:32.040Z,70.45
2023-01-11T20:14:34.272Z,70.01
2023-01-11T20:16:35.728Z,69.84
2023-01-11T20:18:37.225Z,69.30
2023-01-11T20:20:38.744Z,69.63
2023-01-11T20:22:43.145Z,69.79
2023-01-11T20:24:44.629Z,69.56
2023-01-11T20:26:49.133Z,69.27
2023-01-11T20:28:52.019Z,69.58
2023-01-11T20:30:53.930Z,68.97
2023-01-11T20:32:55.450Z,69.06
2023-01-11T20:34:56.927Z,69.08
2023-01-11T20:36:58.375Z,68.48
2023-01-11T20:38:59.926Z,68.34
2023-01-11T20:41:05.544Z,68.72
2023-01-11T20:43:07.403Z,68.99
2023-01-11T20:45:09.322Z,68.23
2023-01-11T20:47:10.775Z,68.43
2023-01-11T20:49:12.624Z,68.44
2023-01-11T20:51:15.525Z,67.94
2023-01-11T20:53:17.516Z,68.11
2023-01-11T20:55:19.409Z,68.04
2023-01-11T20:57:21.433Z,68.63
2023-01-11T20:59:22.881Z,67.77
2023-01-11T21:01:27.467Z,68.83
2023-01-11T21:03:29.004Z,69.37
2023-01-11T21:05:30.769Z,69.26
2023-01-11T21:07:32.485Z,68.92
2023-01-11T21:09:34.010Z,69.41
2023-01-11T21:11:35.528Z,69.52
2023-01-11T21:13:37.527Z,69.44
2023-01-11T21:15:39.109Z,70.00
2023-01-11T21:17:40.900Z,69.39
2023-01-11T21:19:43.803Z,69.12
2023-01-11T21:21:45.338Z,69.83
2023-01-11T21:23:47.173Z,68.87
2023-01-11T21:25:48.651Z,69.44
2023-01-11T21:27:51.129Z,68.51
2023-01-11T21:29:53.487Z,68.56
2023-01-11T21:31:55.009Z,69.14
2023-01-11T21:33:56.548Z,68.78
2023-01-11T21:36:04.391Z,68.84
2023-01-11T21:38:05.926Z,69.07
2023-01-11T21:40:07.792Z,68.56
2023-01-11T21:42:09.418Z,69.23
2023-01-11T21:44:11.560Z,68.71
2023-01-11T21:46:13.283Z,68.74
2023-01-11T21:48:14.888Z,68.92
2023-01-11T21:50:16.666Z,68.21
2023-01-11T21:52:18.170Z,68.64
2023-01-11T21:54:19.796Z,69.21
2023-01-11T21:56:21.452Z,69.29
2023-01-11T21:58:23.981Z,68.51
2023-01-11T22:00:25.996Z,69.24
2023-01-11T22:02:28.390Z,69.71
2023-01-11T22:04:29.936Z,69.90
2023-01-11T22:06:31.449Z,69.90
2023-01-11T22:08:34.226Z,69.79
2023-01-11T22:10:35.797Z,69.99
2023-01-11T22:12:37.630Z,69.62
2023-01-11T22:14:39.153Z,69.21
2023-01-11T22:16:40.928Z,69.54
2023-01-11T22:18:42.949Z,69.34
2023-01-11T22:20:44.443Z,69.83
2023-01-11T22:22:46.042Z,69.63
2023-01-11T22:24:47.713Z,69.08
2023-01-11T22:26:49.353Z,69.08
2023-01-11T22:29:12.893Z,68.92
2023-01-11T22:31:15.803Z,69.54
2023-01-11T22:33:17.389Z,69.22
2023-01-11T22:35:18.879Z,68.91
2023-01-11T22:37:20.505Z,69.70
2023-01-11T22:39:22.117Z,68.77
2023-01-11T22:41:24.532Z,68.85
2023-01-11T22:43:26.160Z,69.39
2023-01-11T22:45:27.718Z,68.94
2023-01-11T22:47:29.303Z,69.83
2023-01-11T22:49:31.165Z,69.45
2023-01-11T22:51:32.638Z,69.16
2023-01-11T22:53:37.513Z,69.34
2023-01-11T22:55:39.073Z,69.69
2023-01-11T22:57:40.636Z,69.22
2023-01-11T22:59:42.152Z,69.25
2023-01-11T23:01:43.685Z,69.16
2023-01-11T23:03:45.447Z,69.69
2023-01-11T23:05:47.113Z,70.52
2023-01-11T23:07:49.988Z,70.66
2023-01-11T23:09:51.551Z,70.79
2023-01-11T23:12:11.399Z,71.05
2023-01-11T23:14:15.151Z,72.35
2023-01-11T23:16:16.695Z,72.68
2023-01-11T23:18:18.207Z,72.07
2023-01-11T23:20:19.774Z,73.16
2023-01-11T23:22:21.352Z,73.45
2023-01-11T23:24:22.921Z,73.12
2023-01-11T23:26:24.632Z,72.29
2023-01-11T23:28:26.126Z,72.10
2023-01-11T23:30:27.683Z,71.71
2023-01-11T23:32:29.209Z,71.85
2023-01-11T23:34:30.740Z,71.46
2023-01-11T23:36:34.633Z,71.43
2023-01-11T23:38:36.186Z,70.76
2023-01-11T23:40:56.209Z,71.14
2023-01-11T23:42:59.402Z,70.61
2023-01-11T23:45:00.920Z,70.63
2023-01-11T23:47:21.040Z,70.61
2023-01-11T23:49:22.882Z,70.85
2023-01-11T23:51:25.739Z,71.08
2023-01-11T23:53:27.291Z,70.79
2023-01-11T23:55:28.974Z,70.61
2023-01-11T23:57:30.568Z,71.05
2023-01-11T23:59:32.188Z,71.51
